Isle of Harris, United Kingdom
Current Conditions -  °F | °C
As of 10:20 PM on Friday 24 Oct 2014 (Local Time) from EGPO Reporting Station
Few Clouds Few Clouds  
Wind Chill: 41°   Ceiling: Unl
Heat Index: 46°   Visibility: 6mi
Dew Point: 41°   Wind: 10mph
Humidity: 81%   Direction: 220°SW
Pressure: 29.5"   Gusts: NA
Location:  57.99°N, 6.75°W
Report Text: EGPO 242120Z AUTO 22009KT 9999 FEW032/// 08/05 Q0999
Loading
Personal Weather Stations






























Interactive Weather Map New forecast layout! Learn more

10-Day Weather Forecast

Advertisements
Track Severe Weather on mobile